Time;durP1;ratioP1;P1;durP2;ratioP2;P2;SDS_P1;SDS_P2;PMS_P1;PMS_P2;Temp;Humidity;BMP_temperature;BMP_pressure;BME280_temperature;BME280_humidity;BME280_pressure;Samples;Min_cycle;Max_cycle;Signal;HPM_P1;HPM_P2
2022/09/21 00:01:28;;;;;;;10.25;4.43;;;13.00;99.90;;;;;;5053376;28;19928;-74
2022/09/21 00:03:58;;;;;;;7.97;4.22;;;13.30;99.90;;;;;;5055167;28;20056;-75
2022/09/21 00:06:28;;;;;;;15.52;4.97;;;13.00;99.90;;;;;;5037242;28;20068;-75
2022/09/21 00:08:56;;;;;;;8.70;4.35;;;12.90;99.90;;;;;;5035898;28;20467;-75
2022/09/21 00:11:26;;;;;;;9.15;4.30;;;12.90;99.90;;;;;;5037136;28;20045;-74
2022/09/21 00:13:59;;;;;;;9.68;4.88;;;12.90;99.90;;;;;;5053491;28;20448;-73
2022/09/21 00:16:27;;;;;;;8.00;4.28;;;12.90;99.90;;;;;;5037527;28;20049;-74
2022/09/21 00:18:55;;;;;;;9.20;4.38;;;12.90;99.90;;;;;;5054438;28;20376;-75
2022/09/21 00:21:23;;;;;;;10.38;4.75;;;12.80;99.90;;;;;;5053189;28;20048;-73
2022/09/21 00:23:51;;;;;;;12.00;4.57;;;;;;;;;;5054692;28;20345;-75
2022/09/21 00:26:21;;;;;;;7.95;4.13;;;12.80;99.90;;;;;;5054457;28;20373;-75
2022/09/21 00:28:56;;;;;;;11.35;4.50;;;12.70;99.90;;;;;;5053310;28;20052;-74
2022/09/21 00:31:25;;;;;;;11.35;4.60;;;12.70;99.90;;;;;;5054596;28;20049;-74
2022/09/21 00:33:53;;;;;;;7.30;4.63;;;;;;;;;;5019582;28;20048;-75
2022/09/21 00:36:23;;;;;;;11.13;4.32;;;12.60;99.90;;;;;;5037614;28;20041;-75
2022/09/21 00:38:53;;;;;;;11.88;4.63;;;12.50;99.90;;;;;;5003955;28;20057;-74
2022/09/21 00:41:21;;;;;;;9.57;4.65;;;12.50;99.90;;;;;;5038907;28;20056;-75
2022/09/21 00:44:21;;;;;;;11.55;4.68;;;12.50;99.90;;;;;;5041088;28;20365;-75
2022/09/21 00:46:50;;;;;;;8.10;4.03;;;12.40;99.90;;;;;;5051043;28;20049;-74
2022/09/21 00:49:20;;;;;;;10.52;4.78;;;12.30;99.90;;;;;;5039574;28;20041;-75
2022/09/21 00:51:50;;;;;;;9.50;4.70;;;12.30;99.90;;;;;;5040651;28;20040;-74
2022/09/21 00:54:25;;;;;;;8.70;4.95;;;12.30;99.90;;;;;;5056518;28;20045;-75
2022/09/21 00:56:55;;;;;;;8.00;4.70;;;12.20;99.90;;;;;;5058022;28;20044;-74
2022/09/21 00:59:23;;;;;;;10.73;4.50;;;12.00;99.90;;;;;;5057861;28;20064;-74
2022/09/21 01:01:58;;;;;;;7.70;4.30;;;12.00;99.90;;;;;;5038944;28;20052;-75
2022/09/21 01:04:27;;;;;;;11.18;4.57;;;12.40;99.90;;;;;;5057498;28;20060;-74
2022/09/21 01:06:57;;;;;;;12.48;4.80;;;11.90;99.90;;;;;;5040270;28;20049;-74
2022/09/21 01:09:25;;;;;;;13.00;4.90;;;11.90;99.90;;;;;;5056570;28;20464;-74
2022/09/21 01:12:26;;;;;;;10.05;4.82;;;12.20;99.90;;;;;;5040449;28;20053;-74
2022/09/21 01:15:12;;;;;;;13.15;5.15;;;11.80;99.90;;;;;;5056636;28;20048;-75
2022/09/21 01:18:00;;;;;;;10.18;5.05;;;11.70;99.90;;;;;;5040261;28;20052;-74
2022/09/21 01:20:35;;;;;;;8.60;5.00;;;11.20;99.90;;;;;;5038811;28;20048;-75
2022/09/21 01:23:34;;;;;;;12.23;5.30;;;11.60;99.90;;;;;;5040152;28;20037;-74
2022/09/21 01:26:48;;;;;;;10.73;5.25;;;11.70;99.90;;;;;;5057433;28;20053;-74
2022/09/21 01:29:22;;;;;;;10.65;5.22;;;11.30;99.90;;;;;;5033200;28;20049;-75
2022/09/21 01:32:42;;;;;;;10.82;5.75;;;11.50;99.90;;;;;;5040151;28;20341;-75
2022/09/21 01:35:20;;;;;;;11.05;5.68;;;11.40;99.90;;;;;;5024220;28;20049;-74
2022/09/21 01:37:48;;;;;;;11.93;5.57;;;11.60;99.90;;;;;;5057702;28;20147;-74
2022/09/21 01:40:42;;;;;;;12.30;5.23;;;11.50;99.90;;;;;;5057602;28;20060;-75
2022/09/21 01:43:42;;;;;;;9.90;5.35;;;11.80;99.90;;;;;;5057212;28;20297;-74
2022/09/21 01:46:19;;;;;;;10.27;5.05;;;11.40;99.90;;;;;;5023462;28;20041;-74
2022/09/21 01:48:52;;;;;;;9.40;5.53;;;11.50;99.90;;;;;;5038765;28;20045;-74
2022/09/21 01:51:21;;;;;;;12.40;5.32;;;11.50;99.90;;;;;;5056539;28;20044;-72
2022/09/21 01:54:11;;;;;;;11.63;5.30;;;11.90;99.90;;;;;;5038113;28;20048;-74
2022/09/21 01:56:45;;;;;;;14.93;5.32;;;11.50;99.90;;;;;;5039386;28;20045;-75
2022/09/21 01:59:17;;;;;;;12.02;5.72;;;11.60;99.90;;;;;;5023210;28;20099;-74
2022/09/21 02:01:50;;;;;;;11.18;5.43;;;11.60;99.90;;;;;;5055636;28;20075;-74
2022/09/21 02:04:17;;;;;;;11.50;5.88;;;11.60;99.90;;;;;;5056513;28;20045;-75
2022/09/21 02:06:47;;;;;;;11.00;5.57;;;11.70;99.90;;;;;;5038951;28;20060;-75
2022/09/21 02:09:16;;;;;;;10.38;4.88;;;11.70;99.90;;;;;;5038060;28;20051;-74
2022/09/21 02:11:44;;;;;;;8.68;5.13;;;11.80;99.90;;;;;;5056307;28;20049;-74
2022/09/21 02:14:21;;;;;;;9.00;4.80;;;11.80;99.90;;;;;;5054369;28;20045;-75
2022/09/21 02:16:55;;;;;;;11.45;4.88;;;11.80;99.90;;;;;;5038852;28;20376;-75
2022/09/21 02:19:48;;;;;;;9.43;4.40;;;11.90;99.90;;;;;;5056329;28;20047;-74
2022/09/21 02:22:32;;;;;;;10.75;5.07;;;12.00;99.90;;;;;;5037784;28;20464;-75
2022/09/21 02:25:14;;;;;;;10.00;4.70;;;12.00;99.90;;;;;;5056576;28;20056;-75
2022/09/21 02:27:55;;;;;;;11.63;5.22;;;12.00;99.90;;;;;;5037145;28;20056;-75
2022/09/21 02:30:24;;;;;;;9.80;4.72;;;12.10;99.90;;;;;;5056365;28;20048;-75
2022/09/21 02:33:21;;;;;;;10.20;4.53;;;12.10;99.90;;;;;;5022225;28;20064;-74
2022/09/21 02:36:18;;;;;;;10.02;5.10;;;12.10;99.90;;;;;;5030059;28;20044;-75
2022/09/21 02:38:53;;;;;;;10.00;4.63;;;12.10;99.90;;;;;;5038826;28;20049;-73
2022/09/21 02:41:30;;;;;;;10.10;4.72;;;12.10;99.90;;;;;;5055109;28;20293;-75
2022/09/21 02:44:15;;;;;;;9.88;4.80;;;12.10;99.90;;;;;;5038881;28;20072;-72
2022/09/21 02:46:53;;;;;;;10.98;5.05;;;12.10;99.90;;;;;;5056102;28;20368;-74
2022/09/21 02:49:30;;;;;;;9.80;4.80;;;12.10;99.90;;;;;;5037076;28;20056;-75
2022/09/21 02:52:04;;;;;;;7.90;4.65;;;12.10;99.90;;;;;;5022023;28;20045;-74
2022/09/21 02:54:33;;;;;;;9.35;5.00;;;12.10;99.90;;;;;;5054320;28;20053;-75
2022/09/21 02:57:02;;;;;;;10.18;5.03;;;12.20;99.90;;;;;;5055707;28;20040;-75
2022/09/21 02:59:31;;;;;;;8.55;5.35;;;12.10;99.90;;;;;;5055607;28;20052;-74
2022/09/21 03:01:59;;;;;;;10.55;5.30;;;12.10;99.90;;;;;;5053846;28;20046;-75
2022/09/21 03:04:27;;;;;;;8.18;5.10;;;12.10;99.90;;;;;;5038176;28;20372;-75
2022/09/21 03:06:55;;;;;;;10.10;4.80;;;;;;;;;;5021455;28;20060;-75
2022/09/21 03:09:23;;;;;;;11.45;4.82;;;12.20;99.90;;;;;;5054235;28;20049;-74
2022/09/21 03:11:51;;;;;;;6.80;4.43;;;;;;;;;;5038100;28;20040;-72
2022/09/21 03:14:19;;;;;;;10.00;4.95;;;12.20;99.90;;;;;;5037240;28;20052;-75
2022/09/21 03:16:46;;;;;;;9.68;4.80;;;12.20;99.90;;;;;;5055265;28;20041;-75
2022/09/21 03:19:14;;;;;;;10.00;4.88;;;;;;;;;;5055264;28;20476;-75
2022/09/21 03:21:42;;;;;;;8.15;4.70;;;;;;;;;;5036976;28;20049;-75
2022/09/21 03:24:11;;;;;;;9.10;4.60;;;12.20;99.90;;;;;;5038053;28;20495;-75
2022/09/21 03:26:38;;;;;;;9.40;5.00;;;12.00;99.90;;;;;;5037850;28;20045;-75
2022/09/21 03:29:07;;;;;;;9.95;4.95;;;12.10;99.90;;;;;;5036591;28;20383;-74
2022/09/21 03:31:34;;;;;;;8.98;5.20;;;12.20;99.90;;;;;;5055032;28;20041;-75
2022/09/21 03:34:02;;;;;;;10.27;4.88;;;12.20;99.90;;;;;;5036583;28;20312;-74
2022/09/21 03:36:30;;;;;;;9.48;4.65;;;12.20;99.90;;;;;;5055056;28;20357;-76
2022/09/21 03:38:57;;;;;;;9.40;4.68;;;12.20;99.90;;;;;;5054911;28;20045;-75
2022/09/21 03:41:25;;;;;;;8.88;4.38;;;12.20;99.90;;;;;;5053664;28;20056;-75
2022/09/21 03:43:52;;;;;;;8.18;4.40;;;12.20;99.90;;;;;;5055148;28;20045;-75
2022/09/21 03:46:20;;;;;;;9.27;4.88;;;12.20;99.90;;;;;;5055009;28;20056;-74
2022/09/21 03:48:47;;;;;;;9.90;4.53;;;12.20;99.90;;;;;;5053702;28;20045;-75
2022/09/21 03:51:15;;;;;;;10.10;4.72;;;12.30;99.90;;;;;;5054806;28;20052;-72
2022/09/21 03:53:43;;;;;;;11.60;4.68;;;;;;;;;;5054115;28;20388;-72
2022/09/21 03:56:10;;;;;;;9.20;4.72;;;12.30;99.90;;;;;;5037301;28;20049;-75
2022/09/21 03:58:37;;;;;;;9.85;4.65;;;12.30;99.90;;;;;;5037254;28;20486;-74
2022/09/21 04:01:05;;;;;;;8.93;4.78;;;12.30;99.90;;;;;;5036103;28;20056;-74
2022/09/21 04:03:33;;;;;;;13.13;4.75;;;12.30;99.90;;;;;;5037783;28;20059;-75
2022/09/21 04:06:07;;;;;;;8.93;4.82;;;12.30;99.90;;;;;;5037739;28;20052;-75
2022/09/21 04:08:34;;;;;;;7.50;4.45;;;12.30;99.90;;;;;;5036409;28;20053;-75
2022/09/21 04:11:16;;;;;;;8.85;4.72;;;12.40;99.90;;;;;;5054636;28;20041;-75
2022/09/21 04:13:48;;;;;;;10.38;4.85;;;12.40;99.90;;;;;;5055055;28;20041;-74
2022/09/21 04:16:16;;;;;;;8.60;4.80;;;12.50;99.90;;;;;;5041487;28;20497;-74
2022/09/21 04:18:47;;;;;;;9.57;4.75;;;12.40;99.90;;;;;;5041073;28;20064;-75
2022/09/21 04:21:19;;;;;;;12.73;4.60;;;12.40;99.90;;;;;;5057506;28;20049;-74
2022/09/21 04:23:48;;;;;;;11.05;4.97;;;12.40;99.90;;;;;;5058417;28;20049;-74
2022/09/21 04:26:36;;;;;;;10.38;4.70;;;12.40;99.90;;;;;;5041536;28;20068;-74
2022/09/21 04:29:04;;;;;;;8.32;4.70;;;12.40;99.90;;;;;;5057234;28;20045;-74
2022/09/21 04:31:32;;;;;;;10.95;4.85;;;12.40;99.90;;;;;;5058319;28;20056;-74
2022/09/21 04:34:00;;;;;;;8.27;4.93;;;12.50;99.90;;;;;;5039708;28;20048;-75
2022/09/21 04:36:28;;;;;;;11.02;4.70;;;12.40;99.90;;;;;;5058065;28;20048;-74
2022/09/21 04:39:03;;;;;;;11.02;5.07;;;12.40;99.90;;;;;;5058518;28;20045;-74
2022/09/21 04:41:30;;;;;;;10.98;4.90;;;12.50;99.90;;;;;;5057531;28;20049;-72
2022/09/21 04:43:58;;;;;;;11.40;5.13;;;12.50;99.90;;;;;;5024723;28;20052;-75
2022/09/21 04:46:26;;;;;;;8.63;4.78;;;;;;;;;;5040680;28;20053;-74
2022/09/21 04:48:54;;;;;;;11.00;4.65;;;12.20;99.90;;;;;;5056778;28;20494;-75
2022/09/21 04:51:22;;;;;;;8.95;4.53;;;;;;;;;;5057868;28;20364;-77
2022/09/21 04:53:50;;;;;;;11.20;5.10;;;;;;;;;;5056829;28;20471;-75
2022/09/21 04:56:18;;;;;;;10.25;4.90;;;12.50;99.90;;;;;;5040626;28;20041;-75
2022/09/21 04:58:46;;;;;;;8.00;4.43;;;12.50;99.90;;;;;;5040630;28;20053;-74
2022/09/21 05:01:13;;;;;;;10.73;5.05;;;12.50;99.90;;;;;;5039081;28;20057;-74
2022/09/21 05:03:41;;;;;;;10.05;4.80;;;12.50;99.90;;;;;;5057706;28;20053;-75
2022/09/21 05:06:12;;;;;;;7.85;4.70;;;12.50;99.90;;;;;;5057999;28;20053;-75
2022/09/21 05:11:26;;;;;;;9.50;4.45;;;;;;;;;;5057570;28;20048;-75
2022/09/21 05:13:53;;;;;;;12.43;4.70;;;12.50;99.90;;;;;;5056391;28;20045;-74
2022/09/21 05:16:21;;;;;;;12.73;4.95;;;12.60;99.90;;;;;;5024366;28;20056;-74
2022/09/21 05:18:53;;;;;;;10.25;4.65;;;12.60;99.90;;;;;;5057553;28;20332;-75
2022/09/21 05:21:21;;;;;;;7.63;4.28;;;12.60;99.90;;;;;;5056505;28;20053;-76
2022/09/21 05:23:49;;;;;;;13.55;4.50;;;12.60;99.90;;;;;;5057573;28;20045;-74
2022/09/21 05:26:16;;;;;;;7.93;4.22;;;12.60;99.90;;;;;;5056574;28;20483;-74
2022/09/21 05:28:44;;;;;;;8.63;4.68;;;12.60;99.90;;;;;;5056287;28;20456;-74
2022/09/21 05:31:33;;;;;;;8.13;4.47;;;12.60;99.90;;;;;;5039584;28;20049;-74
2022/09/21 05:34:24;;;;;;;8.77;4.85;;;12.70;99.90;;;;;;5055244;28;20049;-74
2022/09/21 05:37:30;;;;;;;13.15;5.05;;;12.70;99.90;;;;;;5037167;28;20056;-73
2022/09/21 05:39:58;;;;;;;12.50;4.70;;;12.70;99.90;;;;;;5037456;28;20388;-73
2022/09/21 05:42:26;;;;;;;10.77;4.72;;;12.70;99.90;;;;;;5019116;28;20057;-74
2022/09/21 05:44:54;;;;;;;8.60;4.80;;;;;;;;;;5037346;28;20054;-74
2022/09/21 05:47:32;;;;;;;9.38;5.18;;;12.80;99.90;;;;;;5035800;28;20321;-74
2022/09/21 05:50:19;;;;;;;;;;;12.70;99.90;;;;;;5020657;28;20049;-75
2022/09/21 05:53:15;;;;;;;12.98;4.95;;;12.70;99.90;;;;;;4996774;28;20363;-74
2022/09/21 05:55:43;;;;;;;8.27;4.75;;;;;;;;;;5035523;28;20072;-75
2022/09/21 05:58:22;;;;;;;11.25;5.03;;;12.80;99.90;;;;;;5037225;28;20054;-74
2022/09/21 06:00:53;;;;;;;8.77;4.65;;;12.80;99.90;;;;;;5018492;28;20050;-74
2022/09/21 06:03:35;;;;;;;8.18;4.70;;;12.40;99.90;;;;;;5036980;28;20472;-74
2022/09/21 06:06:08;;;;;;;10.57;5.25;;;12.90;99.90;;;;;;5019899;28;20060;-74
2022/09/21 06:08:35;;;;;;;10.65;4.53;;;12.90;99.90;;;;;;5018371;28;20471;-74
2022/09/21 06:11:03;;;;;;;10.70;4.90;;;;;;;;;;5036913;28;20037;-74
2022/09/21 06:13:30;;;;;;;11.93;5.10;;;13.20;99.90;;;;;;5036857;28;20047;-74
2022/09/21 06:16:01;;;;;;;9.88;5.25;;;13.10;99.90;;;;;;5035305;28;20044;-73
2022/09/21 06:18:29;;;;;;;8.52;4.22;;;13.00;99.90;;;;;;5036252;28;20042;-74
2022/09/21 06:20:57;;;;;;;10.20;4.95;;;;;;;;;;5034638;28;20061;-74
2022/09/21 06:23:24;;;;;;;9.75;4.55;;;13.00;99.90;;;;;;5036275;28;20041;-75
2022/09/21 06:25:53;;;;;;;11.85;4.70;;;13.10;99.90;;;;;;5036438;28;20045;-74
2022/09/21 06:28:25;;;;;;;10.27;4.88;;;;;;;;;;5018629;28;20057;-73
2022/09/21 06:30:54;;;;;;;13.80;5.07;;;13.10;99.90;;;;;;5018630;28;20060;-75
2022/09/21 06:33:23;;;;;;;11.55;5.00;;;13.10;99.90;;;;;;5036181;28;20065;-74
2022/09/21 06:36:00;;;;;;;8.20;4.50;;;12.80;99.90;;;;;;5034956;28;20122;-74
2022/09/21 06:38:28;;;;;;;10.02;4.97;;;;;;;;;;5035221;28;20060;-73
2022/09/21 06:41:01;;;;;;;13.57;4.78;;;13.20;99.90;;;;;;5017662;28;20053;-74
2022/09/21 06:43:28;;;;;;;9.80;4.72;;;13.30;99.90;;;;;;5035758;28;20049;-74
2022/09/21 06:45:58;;;;;;;8.73;5.30;;;13.20;99.90;;;;;;5035244;28;20045;-73
2022/09/21 06:48:28;;;;;;;9.23;4.65;;;13.30;99.90;;;;;;5034670;28;20046;-74
2022/09/21 06:50:57;;;;;;;10.13;5.07;;;13.30;99.90;;;;;;5018184;28;20050;-74
2022/09/21 06:53:25;;;;;;;7.80;4.82;;;13.30;99.90;;;;;;5035246;28;20379;-73
2022/09/21 06:55:53;;;;;;;11.55;5.07;;;13.40;99.90;;;;;;5017094;28;20041;-74
2022/09/21 06:58:21;;;;;;;11.38;5.15;;;13.40;99.90;;;;;;5035498;28;20480;-73
2022/09/21 07:00:48;;;;;;;10.00;5.28;;;13.40;99.90;;;;;;5034603;28;20037;-74
2022/09/21 07:03:27;;;;;;;9.60;4.65;;;13.50;99.90;;;;;;5035302;28;20049;-74
2022/09/21 07:05:57;;;;;;;10.13;4.63;;;;;;;;;;5018612;28;20045;-74
2022/09/21 07:08:25;;;;;;;10.73;5.45;;;13.50;99.90;;;;;;5016974;28;20061;-74
2022/09/21 07:11:15;;;;;;;11.45;4.78;;;;;;;;;;5034929;28;20073;-73
2022/09/21 07:13:42;;;;;;;11.63;4.65;;;13.60;99.90;;;;;;5034531;28;20056;-73
2022/09/21 07:16:11;;;;;;;11.88;5.28;;;13.70;99.90;;;;;;5035304;28;20068;-73
2022/09/21 07:18:41;;;;;;;9.13;5.40;;;13.70;99.90;;;;;;5034986;28;20060;-73
2022/09/21 07:21:10;;;;;;;9.15;4.63;;;13.80;99.90;;;;;;5033886;28;20041;-73
2022/09/21 07:23:38;;;;;;;8.15;4.68;;;13.80;99.90;;;;;;5034138;28;20345;-73
2022/09/21 07:26:08;;;;;;;14.20;5.10;;;13.90;99.90;;;;;;5034977;28;20053;-73
2022/09/21 07:28:37;;;;;;;7.07;4.55;;;13.90;99.90;;;;;;5017998;28;20044;-77
2022/09/21 07:31:13;;;;;;;;;;;13.90;99.90;;;;;;5046165;28;20045;-75
2022/09/21 07:33:43;;;;;;;9.85;5.10;;;14.00;99.90;;;;;;5035095;28;19921;-78
2022/09/21 07:36:11;;;;;;;12.10;4.80;;;;;;;;;;5033320;28;20044;-73
2022/09/21 07:38:41;;;;;;;11.18;4.90;;;14.10;99.90;;;;;;5054980;28;20463;-73
2022/09/21 07:41:11;;;;;;;9.85;4.85;;;14.10;99.90;;;;;;5036446;28;20053;-73
2022/09/21 07:43:40;;;;;;;9.52;4.60;;;14.10;99.90;;;;;;5054962;28;20044;-73
2022/09/21 07:46:11;;;;;;;11.30;4.85;;;14.20;99.90;;;;;;5054912;28;20057;-72
2022/09/21 07:48:38;;;;;;;9.10;4.60;;;15.20;99.90;;;;;;5017272;28;20065;-74
2022/09/21 07:51:11;;;;;;;10.27;5.00;;;14.30;99.90;;;;;;5021110;28;20041;-73
2022/09/21 07:53:41;;;;;;;10.95;4.88;;;14.40;99.90;;;;;;5033190;28;20046;-73
2022/09/21 07:56:11;;;;;;;13.00;4.82;;;14.40;99.90;;;;;;5034067;28;20046;-73
2022/09/21 08:01:26;;;;;;;8.18;4.50;;;14.50;99.90;;;;;;5033812;28;20483;-72
2022/09/21 08:03:55;;;;;;;10.07;4.75;;;14.60;99.90;;;;;;5034837;28;20053;-73
2022/09/21 08:06:26;;;;;;;14.75;4.60;;;14.60;99.90;;;;;;5034794;28;20053;-73
2022/09/21 08:08:53;;;;;;;8.50;4.40;;;14.60;99.90;;;;;;5033431;28;20046;-73
2022/09/21 08:11:26;;;;;;;11.85;4.75;;;14.60;99.90;;;;;;5017469;28;20398;-73
2022/09/21 08:13:57;;;;;;;10.82;4.63;;;14.70;99.90;;;;;;5033477;28;20045;-73
2022/09/21 08:16:25;;;;;;;12.98;4.57;;;14.70;99.90;;;;;;5034902;28;20364;-73
2022/09/21 08:18:53;;;;;;;6.15;3.72;;;14.70;99.90;;;;;;5034361;28;20045;-73
2022/09/21 08:21:21;;;;;;;11.05;4.50;;;14.80;99.90;;;;;;5033480;28;20403;-73
2022/09/21 08:23:48;;;;;;;8.38;4.28;;;14.90;99.90;;;;;;5017645;28;20049;-73
2022/09/21 08:26:18;;;;;;;13.38;4.70;;;15.00;99.90;;;;;;5001072;28;20050;-73
2022/09/21 08:28:48;;;;;;;12.77;4.20;;;15.00;99.90;;;;;;5033519;28;20054;-73
2022/09/21 08:31:19;;;;;;;12.25;4.00;;;15.00;99.90;;;;;;5034779;28;20045;-73
2022/09/21 08:33:47;;;;;;;12.63;4.47;;;15.00;99.90;;;;;;5050636;28;20052;-73
2022/09/21 08:36:15;;;;;;;18.38;5.05;;;15.10;99.90;;;;;;5054169;28;20045;-72
2022/09/21 08:38:42;;;;;;;8.68;4.20;;;15.10;99.90;;;;;;5054386;28;20052;-72
2022/09/21 08:41:24;;;;;;;13.43;4.47;;;15.20;99.90;;;;;;5036199;28;20052;-72
2022/09/21 08:44:06;;;;;;;11.73;4.28;;;15.20;99.90;;;;;;5054270;28;20049;-73
2022/09/21 08:46:35;;;;;;;11.82;4.22;;;15.30;99.90;;;;;;5054306;28;20045;-73
2022/09/21 08:49:17;;;;;;;10.38;4.10;;;15.40;99.90;;;;;;5035157;28;20052;-73
2022/09/21 08:51:51;;;;;;;8.60;4.22;;;15.40;99.90;;;;;;5054525;28;20044;-72
2022/09/21 08:54:28;;;;;;;13.85;4.75;;;15.50;99.90;;;;;;5032142;28;20057;-73
2022/09/21 08:56:55;;;;;;;10.27;4.43;;;15.50;99.90;;;;;;5034032;28;20046;-72
2022/09/21 08:59:34;;;;;;;13.25;4.35;;;15.60;99.90;;;;;;5034683;28;20045;-72
2022/09/21 09:02:05;;;;;;;13.48;4.43;;;15.70;99.90;;;;;;5035152;28;20042;-72
2022/09/21 09:04:48;;;;;;;10.23;4.40;;;15.70;99.90;;;;;;5037595;28;20049;-73
2022/09/21 09:07:53;;;;;;;13.25;4.38;;;15.80;99.90;;;;;;5036127;28;20057;-73
2022/09/21 09:10:42;;;;;;;13.18;4.18;;;15.90;99.90;;;;;;5036904;28;20060;-72
2022/09/21 09:13:45;;;;;;;7.90;3.40;;;16.00;99.90;;;;;;5036575;28;20049;-73
2022/09/21 09:16:26;;;;;;;14.57;3.75;;;16.00;99.90;;;;;;5037335;28;20048;-72
2022/09/21 09:19:09;;;;;;;9.88;3.70;;;16.10;99.90;;;;;;5037339;28;20050;-77
2022/09/21 09:21:39;;;;;;;11.63;3.67;;;16.20;99.90;;;;;;5036510;28;20053;-72
2022/09/21 09:24:18;;;;;;;10.65;4.25;;;16.20;99.90;;;;;;5027919;28;20042;-74
2022/09/21 09:26:58;;;;;;;9.57;3.88;;;16.30;99.90;;;;;;5019737;28;20369;-73
2022/09/21 09:29:34;;;;;;;11.98;4.43;;;16.30;99.90;;;;;;5030794;28;20042;-73
2022/09/21 09:32:03;;;;;;;11.00;3.72;;;16.40;99.90;;;;;;5033718;28;20488;-73
2022/09/21 09:34:39;;;;;;;10.82;4.32;;;16.40;99.90;;;;;;5035526;28;20049;-74
2022/09/21 09:37:12;;;;;;;20.83;5.78;;;16.50;99.90;;;;;;5035975;28;20057;-73
2022/09/21 09:39:44;;;;;;;9.98;4.43;;;16.60;99.90;;;;;;5036983;28;20050;-73
2022/09/21 09:42:43;;;;;;;16.27;5.07;;;16.60;99.90;;;;;;5036028;28;20380;-73
2022/09/21 09:45:20;;;;;;;8.50;4.20;;;16.70;99.80;;;;;;5035420;28;20338;-73
2022/09/21 09:48:02;;;;;;;12.00;4.70;;;16.70;99.70;;;;;;5015813;28;20342;-73
2022/09/21 09:50:35;;;;;;;13.38;4.75;;;16.70;99.50;;;;;;5015905;28;20045;-73
2022/09/21 09:53:09;;;;;;;13.85;4.88;;;16.80;99.30;;;;;;5018557;28;20057;-73
2022/09/21 09:55:42;;;;;;;12.50;5.13;;;16.90;99.20;;;;;;5052358;28;20046;-73
2022/09/21 09:58:16;;;;;;;15.30;5.60;;;16.90;99.10;;;;;;5056305;28;20036;-73
2022/09/21 10:00:45;;;;;;;14.38;6.57;;;16.90;98.80;;;;;;5035054;28;20508;-73
2022/09/21 10:03:20;;;;;;;18.75;7.93;;;17.00;98.60;;;;;;5056146;28;20049;-73
2022/09/21 10:05:48;;;;;;;17.67;7.57;;;17.00;98.40;;;;;;5054239;28;20060;-73
2022/09/21 10:08:26;;;;;;;;;;;17.10;98.40;;;;;;5055876;28;20049;-73
2022/09/21 10:10:54;;;;;;;;;;;17.10;98.40;;;;;;5039305;28;20278;-73
2022/09/21 10:13:33;;;;;;;18.50;7.60;;;17.20;98.50;;;;;;5038341;28;19948;-73
2022/09/21 10:16:16;;;;;;;17.20;8.02;;;17.20;98.30;;;;;;5055378;28;20048;-74
2022/09/21 10:18:48;;;;;;;23.10;8.15;;;17.30;98.10;;;;;;5056215;28;20056;-73
2022/09/21 10:21:20;;;;;;;15.80;7.47;;;17.30;98.00;;;;;;5055198;28;20056;-74
2022/09/21 10:24:01;;;;;;;16.40;6.57;;;17.40;97.80;;;;;;5038565;28;20045;-73
2022/09/21 10:26:54;;;;;;;18.95;6.55;;;17.50;97.70;;;;;;5038413;28;20068;-73
2022/09/21 10:29:22;;;;;;;13.98;6.45;;;17.60;98.00;;;;;;5054521;28;20056;-72
2022/09/21 10:32:15;;;;;;;17.00;7.55;;;17.70;97.90;;;;;;5038681;28;20079;-72
2022/09/21 10:35:11;;;;;;;14.07;7.20;;;17.80;97.90;;;;;;5037267;28;20119;-73
2022/09/21 10:37:41;;;;;;;17.73;7.78;;;17.90;97.40;;;;;;5038318;28;20041;-75
2022/09/21 10:40:24;;;;;;;14.85;6.45;;;18.00;97.30;;;;;;5029369;28;20037;-76
2022/09/21 10:43:05;;;;;;;17.05;7.72;;;;;;;;;;5027233;28;20049;-75
2022/09/21 10:45:37;;;;;;;13.60;7.10;;;18.20;96.60;;;;;;5035499;28;20460;-75
2022/09/21 10:48:05;;;;;;;15.10;6.65;;;18.20;96.60;;;;;;5054075;28;20045;-74
2022/09/21 10:50:41;;;;;;;17.55;8.07;;;18.40;96.80;;;;;;5041376;28;20041;-75
2022/09/21 10:53:09;;;;;;;15.52;5.82;;;18.50;96.10;;;;;;5017731;28;20419;-74
2022/09/21 10:55:39;;;;;;;12.38;5.35;;;18.50;96.00;;;;;;5034121;28;20056;-75
2022/09/21 10:58:25;;;;;;;12.30;5.10;;;;;;;;;;5039932;28;20048;-75
2022/09/21 11:00:54;;;;;;;7.93;3.72;;;18.70;95.30;;;;;;5016798;28;20467;-74
2022/09/21 11:03:51;;;;;;;8.55;3.25;;;18.70;95.30;;;;;;5033905;28;20052;-73
2022/09/21 11:06:36;;;;;;;8.90;3.10;;;18.80;95.20;;;;;;5048701;28;20060;-74
2022/09/21 11:09:25;;;;;;;5.63;2.47;;;18.90;94.70;;;;;;5036710;28;20041;-73
2022/09/21 11:12:12;;;;;;;5.00;2.38;;;18.90;94.70;;;;;;5055393;28;20356;-73
2022/09/21 11:15:01;;;;;;;4.88;2.40;;;19.00;94.50;;;;;;5037487;28;20395;-74
2022/09/21 11:17:32;;;;;;;6.03;2.00;;;19.00;94.40;;;;;;5038147;28;20045;-73
2022/09/21 11:20:48;;;;;;;7.45;2.15;;;19.10;94.00;;;;;;5038128;28;20353;-73
2022/09/21 11:23:21;;;;;;;5.60;2.30;;;19.30;93.50;;;;;;4995101;28;20068;-73
2022/09/21 11:26:10;;;;;;;5.70;2.00;;;19.20;93.70;;;;;;5037984;28;20396;-73
2022/09/21 11:28:46;;;;;;;5.55;1.98;;;19.30;93.50;;;;;;5054031;28;20049;-73
2022/09/21 11:31:26;;;;;;;6.85;2.88;;;19.40;93.30;;;;;;5054986;28;20053;-73
2022/09/21 11:34:18;;;;;;;6.43;2.15;;;19.40;93.30;;;;;;5036878;28;20060;-73
2022/09/21 11:37:04;;;;;;;7.30;2.40;;;19.40;93.20;;;;;;5037596;28;20044;-73
2022/09/21 11:39:45;;;;;;;9.23;2.25;;;19.50;93.30;;;;;;5055320;28;20045;-73
2022/09/21 11:42:40;;;;;;;6.30;2.05;;;19.50;93.30;;;;;;5053729;28;20045;-73
2022/09/21 11:45:19;;;;;;;4.70;2.22;;;19.50;92.90;;;;;;5037954;28;20044;-73
2022/09/21 11:48:07;;;;;;;4.65;2.13;;;19.70;93.00;;;;;;5036437;28;20052;-74
2022/09/21 11:50:59;;;;;;;6.97;2.13;;;19.70;92.80;;;;;;5055268;28;20041;-73
2022/09/21 11:53:45;;;;;;;5.75;2.17;;;19.70;92.20;;;;;;5054582;28;20059;-74
2022/09/21 11:56:24;;;;;;;5.45;2.30;;;19.70;92.10;;;;;;5020756;28;20049;-73
2022/09/21 11:59:20;;;;;;;5.15;2.30;;;19.80;92.10;;;;;;5054933;28;20049;-74
2022/09/21 12:02:21;;;;;;;7.38;2.25;;;19.90;91.80;;;;;;5036168;28;20045;-73
2022/09/21 12:05:03;;;;;;;5.55;2.47;;;20.00;91.80;;;;;;5037541;28;20143;-73
2022/09/21 12:07:39;;;;;;;6.10;2.10;;;20.10;91.70;;;;;;5036436;28;20048;-73
2022/09/21 12:10:25;;;;;;;3.67;1.90;;;20.10;91.60;;;;;;5054593;28;20053;-73
2022/09/21 12:13:02;;;;;;;4.68;2.42;;;20.30;91.40;;;;;;5037255;28;20060;-73
2022/09/21 12:15:49;;;;;;;5.28;2.03;;;20.30;91.30;;;;;;5036284;28;20371;-73
2022/09/21 12:18:33;;;;;;;6.82;1.85;;;17.70;90.70;;;;;;5037146;28;20049;-73
2022/09/21 12:21:17;;;;;;;4.30;2.00;;;20.50;91.30;;;;;;5035816;28;20060;-73
2022/09/21 12:23:55;;;;;;;5.32;1.90;;;19.80;90.70;;;;;;5054299;28;20052;-74
2022/09/21 12:26:28;;;;;;;;;;;20.80;90.80;;;;;;5037774;28;20037;-73
2022/09/21 12:29:10;;;;;;;4.15;2.10;;;20.80;90.30;;;;;;5053377;28;19920;-73
2022/09/21 12:31:52;;;;;;;5.72;2.13;;;21.10;90.40;;;;;;5036732;28;20051;-74
2022/09/21 12:34:25;;;;;;;3.67;1.83;;;21.20;90.50;;;;;;5036141;28;20041;-74
2022/09/21 12:37:18;;;;;;;5.53;2.15;;;21.40;90.60;;;;;;5058358;28;20052;-74
2022/09/21 12:40:11;;;;;;;5.28;2.08;;;21.60;89.00;;;;;;5023353;28;20052;-74
2022/09/21 12:42:58;;;;;;;5.43;1.50;;;21.80;89.10;;;;;;5057058;28;20053;-74
2022/09/21 12:45:33;;;;;;;4.97;1.53;;;22.00;86.50;;;;;;5058371;28;20407;-74
2022/09/21 12:48:28;;;;;;;5.82;1.60;;;22.10;85.10;;;;;;5039705;28;20467;-73
2022/09/21 12:51:04;;;;;;;4.28;1.48;;;22.20;84.70;;;;;;5058206;28;20045;-74
2022/09/21 12:53:37;;;;;;;3.00;1.40;;;22.20;84.60;;;;;;5058442;28;20056;-74
2022/09/21 12:56:14;;;;;;;2.83;1.48;;;22.30;83.70;;;;;;5057107;28;20048;-74
2022/09/21 12:58:43;;;;;;;2.83;1.30;;;22.20;82.60;;;;;;5024795;28;20048;-74
2022/09/21 13:01:31;;;;;;;3.42;1.50;;;22.20;82.20;;;;;;5039765;28;20068;-74
2022/09/21 13:04:37;;;;;;;5.97;1.75;;;22.10;80.20;;;;;;5040614;28;20045;-74
2022/09/21 13:07:32;;;;;;;2.67;1.80;;;22.00;79.80;;;;;;5056569;28;20060;-74
2022/09/21 13:10:13;;;;;;;6.78;1.98;;;21.80;79.10;;;;;;5058014;28;20040;-74
2022/09/21 13:12:45;;;;;;;4.63;2.08;;;21.60;79.20;;;;;;5023956;28;20057;-74
2022/09/21 13:15:24;;;;;;;5.90;2.75;;;21.50;79.10;;;;;;5056467;28;20057;-73
2022/09/21 13:18:04;;;;;;;3.80;2.60;;;21.40;79.20;;;;;;5024283;28;20055;-74
2022/09/21 13:20:54;;;;;;;4.95;2.30;;;21.30;78.60;;;;;;5039460;28;20500;-73
2022/09/21 13:23:54;;;;;;;5.93;2.20;;;21.20;78.90;;;;;;5040183;28;20045;-74
2022/09/21 13:26:35;;;;;;;4.80;1.90;;;21.50;78.40;;;;;;5057707;28;20052;-74
2022/09/21 13:29:18;;;;;;;3.75;1.73;;;21.20;78.60;;;;;;5039116;28;20056;-73
2022/09/21 13:31:57;;;;;;;3.50;1.67;;;21.20;77.30;;;;;;5057467;28;20048;-73
2022/09/21 13:34:32;;;;;;;2.60;1.60;;;21.10;77.40;;;;;;5056409;28;20053;-73
2022/09/21 13:37:15;;;;;;;3.17;1.50;;;21.00;76.30;;;;;;5057419;28;20052;-74
2022/09/21 13:39:46;;;;;;;3.20;1.65;;;20.90;76.10;;;;;;5057126;28;20041;-74